Weather at Chetumal International Airport

Public forecast

Using degrees Celsius for public forecast. Weather courtesy of forecast.io.

Current aviation weather report (METAR) for Chetumal International Airport

Retrieved 2021/04/20 12:03 UTC (41 minutes ago):

MMCM 201203Z RTD 00000KT 7SM FEW020 27/25 A2989 RMK SLP123 5//// 900 8/100 RTS

Aviation forecast (TAF) for Chetumal International Airport

Forecast is more than 12 hours old.

Retrieved 2021/04/19 18:59 UTC (18 hours ago):

TAF MMCM 191652Z 1918/2018 00000KT 6SM HZ SCT020 BECMG 1920/1921 09012KT BKN020 FM200200 12008KT P6SM SCT020 BKN070 BECMG 2005/2006 00000KT FM201000 12008KT 6SM HZ BKN020 BKN070